Track кралинов Константин

Time Latitude Longitude Accuracy (66% radius in meters) Altitude (meters) Speed (km/hour) Bearing (degrees) Battery (%) GPS flag
10:52:20 51.753745 39.189435 12 182.06673039467 0 344.76681518555 64 1 delete
10:52:11 51.753745 39.189435 8 182.09145187467 0 344.76681518555 64 1 delete
10:51:59 51.753745 39.189435 12 182.04633153921 0 344.76681518555 64 1 delete
10:51:47 51.753745 39.189435 12 181.94517008701 0 344.76681518555 64 1 delete
10:51:35 51.753745 39.189435 12 181.74852117718 0 344.76681518555 64 1 delete
10:51:23 51.753745 39.189435 8 181.73674168555 0 344.76681518555 64 1 delete
10:51:11 51.753745 39.189435 6 181.68883738641 0 344.76681518555 64 1 delete
10:50:59 51.753745 39.189435 6 181.70296194509 0 344.76681518555 64 1 delete
10:50:47 51.753745 39.189435 6 181.65322333438 0 344.76681518555 64 1 delete
10:50:35 51.753745 39.189435 12 181.55622006577 0 344.76681518555 64 1 delete
10:50:23 51.753745 39.189435 8 181.40164952795 0 344.76681518555 64 1 delete
10:50:14 51.753745 39.189435 6 181.35857749761 0 344.76681518555 64 1 delete
10:50:02 51.753745 39.189435 8 181.31619865938 0 344.76681518555 64 1 delete
10:49:50 51.753745 39.189435 12 181.73097411265 0 344.76681518555 64 1 delete
10:49:38 51.753745 39.189435 16 182.11781721 0 344.76681518555 64 1 delete
10:49:29 51.753745 39.189435 16 182.28170084491 0 344.76681518555 64 1 delete
10:49:17 51.753745 39.189435 12 182.33875828007 0 344.76681518555 64 1 delete
10:49:08 51.753745 39.189435 8 182.32173171339 0 344.76681518555 64 1 delete
10:48:56 51.753745 39.189435 12 182.19929961906 0 344.76681518555 64 1 delete
10:48:47 51.753745 39.189435 6 182.08956135904 0 344.76681518555 64 1 delete
10:48:35 51.753745 39.189435 6 182.0301231666 0 344.76681518555 64 1 delete
10:48:23 51.753745 39.189435 8 181.86372287287 0 344.76681518555 64 1 delete
10:48:11 51.753745 39.189435 12 181.78628479433 0.0048858225345612 344.76681518555 64 1 delete
10:47:59 51.753745 39.189435 6 181.76446317924 0 344.76681518555 64 1 delete
10:47:47 51.753745 39.189435 8 181.65205753967 0 344.76681518555 64 1 delete
10:47:35 51.753745 39.189435 16 181.5516912293 0 344.76681518555 64 1 delete
10:47:23 51.753745 39.189435 8 181.35720904909 0 344.76681518555 64 1 delete
10:47:14 51.753745 39.189435 6 181.29092271002 0 344.76681518555 64 1 delete
10:47:02 51.753745 39.189435 12 181.60896589956 0 344.76681518555 64 1 delete
10:46:50 51.753745 39.189435 12 181.68616609294 0 344.76681518555 64 1 delete
10:46:38 51.753745 39.189435 6 181.70366896791 0 344.76681518555 64 1 delete
10:46:23 51.753745 39.189435 12 182.12181189253 0 344.76681518555 64 1 delete
10:46:11 51.753745 39.189435 12 182.40746887546 0 344.76681518555 64 1 delete
10:46:02 51.753745 39.189435 12 182.54019368403 0 344.76681518555 64 1 delete
10:45:50 51.753745 39.189435 12 182.65980315746 0 344.76681518555 64 1 delete
10:45:38 51.753745 39.189435 12 182.92426608874 0 344.76681518555 64 1 delete
10:45:26 51.753745 39.189435 8 183.58003669369 0 344.76681518555 64 1 delete
10:45:14 51.753745 39.189435 8 183.70629725952 0 344.76681518555 64 1 delete
10:45:02 51.753745 39.189435 6 183.78513044615 0 344.76681518555 64 1 delete
10:44:50 51.753745 39.189435 6 183.85890229562 0 344.76681518555 64 1 delete
10:44:41 51.753745 39.189435 6 183.92643325672 0 344.76681518555 64 1 delete
10:44:26 51.753745 39.189435 8 184.13202023156 0 344.76681518555 64 1 delete
10:44:14 51.753745 39.189435 6 184.29374960013 0 344.76681518555 64 1 delete
10:44:02 51.753745 39.189435 12 184.48577525031 0 344.76681518555 64 1 delete
10:43:53 51.753745 39.189435 12 184.45984236763 0 344.76681518555 64 1 delete
10:43:41 51.753745 39.189435 16 184.2259396824 0 344.76681518555 64 1 delete
10:43:29 51.753745 39.189435 12 184.12248053275 0 344.76681518555 64 1 delete
10:43:17 51.753745 39.189435 12 184.19292559561 0 344.76681518555 64 1 delete
10:43:05 51.753745 39.189435 12 184.32386709733 0 344.76681518555 64 1 delete
10:42:53 51.753745 39.189435 12 184.41397846275 0 344.76681518555 64 1 delete